Time;durP1;ratioP1;P1;durP2;ratioP2;P2;SDS_P1;SDS_P2;PMS_P1;PMS_P2;Temp;Humidity;BMP_temperature;BMP_pressure;BME280_temperature;BME280_humidity;BME280_pressure;Samples;Min_cycle;Max_cycle;Signal;HPM_P1;HPM_P2
2022/05/23 00:01:53;;;;;;;23.65;15.85;;;;;;;;;;5055778;28;20032;-68
2022/05/23 00:04:19;;;;;;;13.32;7.63;;;;;;;;;;5055846;28;20079;-67
2022/05/23 00:06:46;;;;;;;16.08;7.35;;;;;;;;;;5055788;28;20408;-67
2022/05/23 00:09:12;;;;;;;14.98;8.43;;;;;;;;;;5055586;28;20028;-67
2022/05/23 00:11:38;;;;;;;18.00;7.50;;;;;;;;;;5055204;28;20437;-67
2022/05/23 00:14:05;;;;;;;15.40;7.70;;;;;;;;;;5055540;28;20493;-67
2022/05/23 00:16:34;;;;;;;18.02;8.35;;;;;;;;;;5055291;28;20069;-67
2022/05/23 00:19:00;;;;;;;16.55;7.78;;;;;;;;;;5055384;28;20025;-67
2022/05/23 00:21:26;;;;;;;14.48;8.75;;;;;;;;;;5055311;28;20025;-67
2022/05/23 00:23:52;;;;;;;10.85;7.97;;;;;;;;;;5055233;28;20033;-67
2022/05/23 00:26:20;;;;;;;12.80;7.93;;;;;;;;;;5055159;28;20500;-67
2022/05/23 00:28:47;;;;;;;14.43;7.97;;;;;;;;;;5055265;28;20028;-67
2022/05/23 00:31:13;;;;;;;11.75;7.75;;;;;;;;;;5055174;28;20028;-67
2022/05/23 00:36:25;;;;;;;17.98;8.40;;;;;;;;;;5054991;28;20075;-67
2022/05/23 00:38:53;;;;;;;13.52;8.10;;;;;;;;;;5054722;28;20021;-67
2022/05/23 00:44:17;;;;;;;12.20;8.43;;;;;;;;;;5054949;28;20040;-68
2022/05/23 00:47:00;;;;;;;11.73;8.43;;;;;;;;;;5052559;28;20025;-67
2022/05/23 00:49:31;;;;;;;12.32;7.38;;;;;;;;;;5051998;28;20457;-67
2022/05/23 00:51:58;;;;;;;12.48;7.57;;;;;;;;;;5053811;28;20074;-68
2022/05/23 00:54:26;;;;;;;16.25;7.03;;;;;;;;;;5054534;28;20045;-67
2022/05/23 00:56:53;;;;;;;15.95;6.82;;;;;;;;;;5054513;28;20033;-68
2022/05/23 00:59:22;;;;;;;11.18;8.05;;;;;;;;;;5051346;28;20029;-67
2022/05/23 01:01:48;;;;;;;16.48;6.90;;;;;;;;;;5051675;28;20090;-67
2022/05/23 01:04:14;;;;;;;12.38;6.75;;;;;;;;;;5052410;28;20024;-67
2022/05/23 01:06:40;;;;;;;13.88;7.43;;;;;;;;;;5053258;28;20028;-67
2022/05/23 01:09:06;;;;;;;9.93;7.35;;;;;;;;;;5054017;28;20017;-67
2022/05/23 01:11:32;;;;;;;12.63;7.93;;;;;;;;;;5054303;28;20127;-67
2022/05/23 01:13:58;;;;;;;13.07;8.13;;;;;;;;;;5054031;28;20373;-67
2022/05/23 01:16:26;;;;;;;18.10;9.05;;;;;;;;;;5054279;28;20040;-67
2022/05/23 01:18:52;;;;;;;12.60;8.57;;;;;;;;;;5054167;28;20025;-67
2022/05/23 01:21:23;;;;;;;13.55;8.70;;;;;;;;;;5054183;28;20025;-67
2022/05/23 01:23:49;;;;;;;18.88;8.85;;;;;;;;;;5053867;28;20078;-67
2022/05/23 01:26:15;;;;;;;16.60;8.82;;;;;;;;;;5054232;28;20101;-68
2022/05/23 01:28:42;;;;;;;11.48;9.00;;;;;;;;;;5053718;28;20148;-67
2022/05/23 01:31:09;;;;;;;9.55;8.02;;;;;;;;;;5053899;28;20033;-67
2022/05/23 01:33:35;;;;;;;8.52;7.55;;;;;;;;;;5053703;28;20393;-67
2022/05/23 01:36:01;;;;;;;11.43;7.93;;;;;;;;;;5053604;28;20033;-67
2022/05/23 01:38:28;;;;;;;9.57;8.52;;;;;;;;;;5053928;28;20052;-67
2022/05/23 01:40:57;;;;;;;11.02;8.02;;;;;;;;;;5054028;28;20381;-67
2022/05/23 01:43:24;;;;;;;10.43;7.75;;;;;;;;;;5053455;28;20126;-67
2022/05/23 01:45:50;;;;;;;8.82;7.78;;;;;;;;;;5053636;28;20027;-67
2022/05/23 01:48:16;;;;;;;9.70;7.90;;;;;;;;;;5053854;28;20025;-67
2022/05/23 01:50:42;;;;;;;9.70;7.35;;;;;;;;;;5053726;28;20056;-67
2022/05/23 01:53:08;;;;;;;10.05;7.90;;;;;;;;;;5053613;28;20139;-67
2022/05/23 01:55:35;;;;;;;11.13;7.63;;;;;;;;;;5053901;28;20064;-67
2022/05/23 01:58:02;;;;;;;18.90;8.02;;;;;;;;;;5053346;28;20041;-67
2022/05/23 02:03:13;;;;;;;13.57;7.72;;;;;;;;;;5053577;28;20079;-67
2022/05/23 02:05:39;;;;;;;10.38;7.35;;;;;;;;;;5053289;28;20052;-67
2022/05/23 02:08:05;;;;;;;13.68;9.13;;;;;;;;;;5053335;28;20067;-67
2022/05/23 02:10:31;;;;;;;13.93;7.65;;;;;;;;;;5053509;28;20021;-67
2022/05/23 02:13:00;;;;;;;8.18;7.40;;;;;;;;;;5053416;28;20112;-67
2022/05/23 02:15:28;;;;;;;12.05;7.95;;;;;;;;;;5053462;28;20035;-68
2022/05/23 02:17:54;;;;;;;8.18;7.30;;;;;;;;;;5053192;28;20033;-67
2022/05/23 02:20:20;;;;;;;11.82;8.05;;;;;;;;;;5053445;28;20025;-67
2022/05/23 02:22:46;;;;;;;10.35;8.00;;;;;;;;;;5053086;28;20021;-67
2022/05/23 02:25:12;;;;;;;10.27;7.07;;;;;;;;;;5052952;28;20366;-68
2022/05/23 02:27:39;;;;;;;10.27;7.88;;;;;;;;;;5053109;28;20028;-68
2022/05/23 02:30:05;;;;;;;9.93;8.10;;;;;;;;;;5053319;28;20526;-67
2022/05/23 02:32:31;;;;;;;9.02;7.32;;;;;;;;;;5053132;28;20109;-67
2022/05/23 02:34:57;;;;;;;12.90;8.38;;;;;;;;;;5053008;28;20028;-68
2022/05/23 02:37:23;;;;;;;9.05;8.18;;;;;;;;;;5052715;28;20037;-67
2022/05/23 02:39:49;;;;;;;14.35;7.47;;;;;;;;;;5052998;28;20063;-67
2022/05/23 02:42:16;;;;;;;13.02;8.27;;;;;;;;;;5052734;28;20032;-67
2022/05/23 02:44:42;;;;;;;13.07;8.40;;;;;;;;;;5052719;28;20025;-67
2022/05/23 02:47:08;;;;;;;8.73;7.80;;;;;;;;;;5052647;28;20113;-67
2022/05/23 02:49:34;;;;;;;11.80;7.45;;;;;;;;;;5052657;28;20519;-68
2022/05/23 02:52:00;;;;;;;9.38;7.88;;;;;;;;;;5052649;28;20029;-68
2022/05/23 02:54:26;;;;;;;12.45;8.23;;;;;;;;;;5052759;28;20159;-67
2022/05/23 02:56:52;;;;;;;11.85;8.05;;;;;;;;;;5052640;28;20040;-68
2022/05/23 02:59:18;;;;;;;13.20;8.32;;;;;;;;;;5052858;28;20021;-67
2022/05/23 03:04:29;;;;;;;9.48;7.38;;;;;;;;;;5053099;28;20040;-67
2022/05/23 03:06:55;;;;;;;9.65;7.88;;;;;;;;;;5052608;28;20033;-67
2022/05/23 03:09:21;;;;;;;14.05;8.35;;;;;;;;;;5052629;28;20025;-67
2022/05/23 03:11:48;;;;;;;10.73;7.78;;;;;;;;;;5052838;28;20029;-68
2022/05/23 03:14:14;;;;;;;12.27;7.93;;;;;;;;;;5052890;28;20070;-67
2022/05/23 03:16:40;;;;;;;13.13;8.05;;;;;;;;;;5052636;28;20048;-67
2022/05/23 03:19:06;;;;;;;16.85;7.78;;;;;;;;;;5052451;28;20027;-67
2022/05/23 03:27:01;;;;;;;11.98;8.20;;;;;;;;;;5052365;28;20079;-67
2022/05/23 03:29:28;;;;;;;10.00;8.57;;;;;;;;;;5053202;28;20124;-67
2022/05/23 03:31:54;;;;;;;11.50;8.13;;;;;;;;;;5056530;28;20025;-67
2022/05/23 03:34:20;;;;;;;10.80;7.95;;;;;;;;;;5056353;28;20052;-67
2022/05/23 03:36:46;;;;;;;9.45;8.48;;;;;;;;;;5056083;28;20048;-67
2022/05/23 03:39:12;;;;;;;13.80;8.43;;;;;;;;;;5056173;28;20025;-67
2022/05/23 03:41:38;;;;;;;12.45;9.02;;;;;;;;;;5056206;28;20017;-67
2022/05/23 03:44:07;;;;;;;12.73;9.07;;;;;;;;;;5055985;28;20021;-67
2022/05/23 03:46:34;;;;;;;19.45;9.73;;;;;;;;;;5055929;28;20025;-67
2022/05/23 03:49:01;;;;;;;9.82;8.65;;;;;;;;;;5056065;28;20389;-67
2022/05/23 03:51:27;;;;;;;12.40;8.30;;;;;;;;;;5055775;28;20028;-67
2022/05/23 03:53:53;;;;;;;10.43;8.38;;;;;;;;;;5055777;28;20049;-67
2022/05/23 03:56:19;;;;;;;10.55;9.02;;;;;;;;;;5056035;28;20021;-67
2022/05/23 03:58:46;;;;;;;10.77;9.02;;;;;;;;;;5055890;28;20046;-67
2022/05/23 04:01:13;;;;;;;10.60;9.25;;;;;;;;;;5055832;28;20035;-68
2022/05/23 04:03:40;;;;;;;12.07;9.82;;;;;;;;;;5055802;28;20531;-67
2022/05/23 04:06:06;;;;;;;15.57;8.70;;;;;;;;;;5056053;28;20154;-67
2022/05/23 04:08:32;;;;;;;13.52;8.93;;;;;;;;;;5055371;28;20487;-67
2022/05/23 04:10:58;;;;;;;13.88;9.07;;;;;;;;;;5055547;28;20476;-67
2022/05/23 04:13:26;;;;;;;16.63;7.82;;;;;;;;;;5055572;28;20078;-67
2022/05/23 04:15:52;;;;;;;12.48;8.55;;;;;;;;;;5055663;28;20032;-67
2022/05/23 04:18:18;;;;;;;15.07;9.38;;;;;;;;;;5055217;28;20108;-68
2022/05/23 04:20:45;;;;;;;11.57;8.85;;;;;;;;;;5055009;28;20029;-67
2022/05/23 04:23:11;;;;;;;12.65;9.27;;;;;;;;;;5055447;28;20094;-67
2022/05/23 04:25:41;;;;;;;14.50;9.80;;;;;;;;;;5055250;28;20021;-67
2022/05/23 04:28:07;;;;;;;11.88;9.82;;;;;;;;;;5055657;28;20060;-67
2022/05/23 04:30:33;;;;;;;12.57;9.95;;;;;;;;;;5055458;28;20056;-67
2022/05/23 04:35:44;;;;;;;17.10;10.52;;;;;;;;;;5055323;28;20060;-67
2022/05/23 04:38:11;;;;;;;14.38;10.32;;;;;;;;;;5054901;28;20540;-67
2022/05/23 04:40:38;;;;;;;22.63;10.68;;;;;;;;;;5054658;28;20048;-67
2022/05/23 04:43:04;;;;;;;13.52;11.45;;;;;;;;;;5055183;28;20036;-67
2022/05/23 04:45:31;;;;;;;17.00;11.80;;;;;;;;;;5054684;28;20021;-67
2022/05/23 04:50:41;;;;;;;14.90;11.23;;;;;;;;;;5055082;28;20055;-67
2022/05/23 04:53:08;;;;;;;14.95;11.27;;;;;;;;;;5054787;28;20056;-67
2022/05/23 04:55:35;;;;;;;13.38;11.13;;;;;;;;;;5054893;28;20036;-67
2022/05/23 04:58:01;;;;;;;17.98;10.20;;;;;;;;;;5054803;28;20036;-67
2022/05/23 05:00:29;;;;;;;13.98;11.00;;;;;;;;;;5054691;28;20057;-67
2022/05/23 05:02:59;;;;;;;14.10;8.98;;;;;;;;;;5054437;28;20033;-67
2022/05/23 05:05:25;;;;;;;14.60;9.80;;;;;;;;;;5054343;28;20040;-67
2022/05/23 05:07:51;;;;;;;17.58;9.05;;;;;;;;;;5053890;28;20036;-67
2022/05/23 05:10:18;;;;;;;11.65;9.15;;;;;;;;;;5054462;28;20029;-70
2022/05/23 05:12:44;;;;;;;11.75;9.00;;;;;;;;;;5054096;28;20017;-67
2022/05/23 05:15:10;;;;;;;12.98;7.35;;;;;;;;;;5052849;28;20028;-67
2022/05/23 05:17:36;;;;;;;11.70;7.30;;;;;;;;;;5053045;28;20029;-68
2022/05/23 05:20:03;;;;;;;12.75;6.88;;;;;;;;;;5053910;28;20048;-66
2022/05/23 05:22:29;;;;;;;10.00;7.10;;;;;;;;;;5053908;28;20027;-67
2022/05/23 05:24:55;;;;;;;11.43;7.35;;;;;;;;;;5054327;28;20048;-67
2022/05/23 05:27:21;;;;;;;12.30;7.78;;;;;;;;;;5054786;28;20032;-68
2022/05/23 05:29:47;;;;;;;10.13;7.25;;;;;;;;;;5053785;28;20074;-68
2022/05/23 05:32:25;;;;;;;15.55;7.70;;;;;;;;;;5053802;28;20025;-68
2022/05/23 05:34:54;;;;;;;8.40;7.40;;;;;;;;;;5053749;28;20029;-70
2022/05/23 05:37:22;;;;;;;11.07;7.13;;;;;;;;;;5053904;28;20036;-68
2022/05/23 05:39:49;;;;;;;11.63;8.38;;;;;;;;;;5052910;28;20025;-68
2022/05/23 05:42:20;;;;;;;16.67;8.57;;;;;;;;;;5050450;28;20025;-67
2022/05/23 05:44:50;;;;;;;10.43;7.28;;;;;;;;;;5051040;28;20029;-67
2022/05/23 05:47:19;;;;;;;11.90;7.70;;;;;;;;;;5053294;28;20128;-67
2022/05/23 05:49:46;;;;;;;9.40;7.63;;;;;;;;;;5053293;28;20048;-67
2022/05/23 05:52:13;;;;;;;14.80;7.55;;;;;;;;;;5052667;28;20469;-68
2022/05/23 05:54:41;;;;;;;10.63;6.75;;;;;;;;;;5050568;28;20508;-68
2022/05/23 05:57:08;;;;;;;15.70;7.90;;;;;;;;;;5052738;28;20048;-67
2022/05/23 05:59:34;;;;;;;20.02;7.72;;;;;;;;;;5053101;28;20118;-67
2022/05/23 06:02:01;;;;;;;13.88;7.90;;;;;;;;;;5053205;28;20499;-70
2022/05/23 06:04:27;;;;;;;12.95;7.47;;;;;;;;;;5053120;28;20112;-65
2022/05/23 06:12:22;;;;;;;13.52;7.07;;;;;;;;;;5052837;28;20504;-64
2022/05/23 06:14:48;;;;;;;12.07;7.03;;;;;;;;;;5051070;28;20021;-66
2022/05/23 06:17:14;;;;;;;8.02;5.97;;;;;;;;;;5051982;28;20049;-68
2022/05/23 06:19:45;;;;;;;10.55;5.65;;;;;;;;;;5051165;28;20021;-65
2022/05/23 06:22:11;;;;;;;9.10;4.97;;;;;;;;;;5052471;28;20029;-66
2022/05/23 06:24:38;;;;;;;9.43;5.75;;;;;;;;;;5052538;28;20466;-65
2022/05/23 06:27:06;;;;;;;11.63;5.40;;;;;;;;;;5052444;28;20021;-65
2022/05/23 06:29:33;;;;;;;6.60;4.30;;;;;;;;;;5052329;28;20362;-65
2022/05/23 06:31:59;;;;;;;9.50;4.70;;;;;;;;;;5051959;28;20029;-70
2022/05/23 06:34:26;;;;;;;6.25;4.60;;;;;;;;;;5051932;28;20029;-65
2022/05/23 06:36:52;;;;;;;10.23;5.10;;;;;;;;;;5051473;28;20474;-65
2022/05/23 06:39:18;;;;;;;10.70;4.93;;;;;;;;;;5051868;28;20025;-70
2022/05/23 06:41:44;;;;;;;13.65;5.45;;;;;;;;;;5051862;28;20025;-68
2022/05/23 06:44:10;;;;;;;6.75;4.57;;;;;;;;;;5050234;28;20025;-66
2022/05/23 06:46:36;;;;;;;9.05;4.60;;;;;;;;;;5052306;28;20047;-70
2022/05/23 06:49:02;;;;;;;11.65;4.28;;;;;;;;;;5052524;28;20031;-66
2022/05/23 06:51:28;;;;;;;8.65;4.40;;;;;;;;;;5052044;28;20048;-66
2022/05/23 06:53:57;;;;;;;7.40;4.38;;;;;;;;;;5052242;28;20041;-66
2022/05/23 06:56:23;;;;;;;11.05;4.50;;;;;;;;;;5052630;28;20445;-66
2022/05/23 06:58:49;;;;;;;5.50;4.03;;;;;;;;;;5052648;28;20036;-66
2022/05/23 07:01:15;;;;;;;9.35;4.43;;;;;;;;;;5052354;28;20036;-65
2022/05/23 07:03:41;;;;;;;8.73;4.40;;;;;;;;;;5052894;28;20044;-66
2022/05/23 07:14:22;;;;;;;6.57;4.07;;;;;;;;;;5056621;28;20516;-70
2022/05/23 07:16:49;;;;;;;8.13;4.25;;;;;;;;;;5056119;28;20091;-66
2022/05/23 07:19:15;;;;;;;5.35;3.83;;;;;;;;;;5056263;28;20091;-66
2022/05/23 07:21:41;;;;;;;7.38;3.80;;;;;;;;;;5056079;28;20492;-66
2022/05/23 07:24:07;;;;;;;9.55;3.88;;;;;;;;;;5056531;28;20096;-66
2022/05/23 07:26:33;;;;;;;7.05;3.95;;;;;;;;;;5056510;28;20044;-66
2022/05/23 07:28:59;;;;;;;9.30;3.90;;;;;;;;;;5056424;28;20550;-66
2022/05/23 07:31:26;;;;;;;8.52;3.70;;;;;;;;;;5055938;28;20029;-66
2022/05/23 07:33:52;;;;;;;9.13;4.63;;;;;;;;;;5056448;28;20082;-66
2022/05/23 07:36:18;;;;;;;9.32;4.22;;;;;;;;;;5056392;28;20528;-66
2022/05/23 07:38:45;;;;;;;7.03;3.42;;;;;;;;;;5055850;28;20579;-70
2022/05/23 07:41:11;;;;;;;8.48;3.70;;;;;;;;;;5055977;28;20423;-67
2022/05/23 07:43:39;;;;;;;10.23;3.50;;;;;;;;;;5053933;28;20150;-66
2022/05/23 07:46:09;;;;;;;4.93;3.65;;;;;;;;;;5055594;28;20517;-66
2022/05/23 07:48:36;;;;;;;13.27;3.88;;;;;;;;;;5055653;28;20028;-69
2022/05/23 07:51:03;;;;;;;8.10;3.60;;;;;;;;;;5056145;28;20381;-67
2022/05/23 08:01:43;;;;;;;8.23;3.60;;;;;;;;;;5055944;28;20032;-68
2022/05/23 08:04:10;;;;;;;5.70;3.40;;;;;;;;;;5055084;28;20029;-66
2022/05/23 08:06:36;;;;;;;9.18;3.50;;;;;;;;;;5055297;28;20378;-66
2022/05/23 08:09:02;;;;;;;8.73;3.63;;;;;;;;;;5055403;28;20052;-66
2022/05/23 08:11:28;;;;;;;8.35;3.70;;;;;;;;;;5055926;28;20040;-71
2022/05/23 08:13:55;;;;;;;9.88;3.63;;;;;;;;;;5055382;28;20047;-66
2022/05/23 08:16:21;;;;;;;10.93;4.05;;;;;;;;;;5054565;28;20421;-71
2022/05/23 08:18:47;;;;;;;7.85;3.70;;;;;;;;;;5055315;28;20067;-66
2022/05/23 08:21:15;;;;;;;8.30;3.47;;;;;;;;;;5055278;28;20021;-67
2022/05/23 08:23:42;;;;;;;9.80;3.67;;;;;;;;;;5055129;28;20055;-69
2022/05/23 08:26:08;;;;;;;13.77;3.67;;;;;;;;;;5055472;28;20155;-70
2022/05/23 08:28:34;;;;;;;8.27;3.95;;;;;;;;;;5055147;28;20028;-70
2022/05/23 08:31:00;;;;;;;10.88;3.67;;;;;;;;;;5055150;28;20064;-70
2022/05/23 08:33:26;;;;;;;9.35;3.60;;;;;;;;;;5055394;28;20024;-67
2022/05/23 08:35:53;;;;;;;6.50;3.05;;;;;;;;;;5055219;28;20040;-67
2022/05/23 08:38:19;;;;;;;14.68;3.58;;;;;;;;;;5054312;28;20072;-66
2022/05/23 08:40:48;;;;;;;5.25;3.22;;;;;;;;;;5055388;28;20029;-67
2022/05/23 08:43:18;;;;;;;9.68;3.25;;;;;;;;;;5055188;28;20029;-70
2022/05/23 08:45:45;;;;;;;14.02;3.10;;;;;;;;;;5055227;28;20135;-66
2022/05/23 08:48:18;;;;;;;5.90;3.50;;;;;;;;;;5053497;28;20399;-66
2022/05/23 08:50:50;;;;;;;7.30;3.25;;;;;;;;;;5054719;28;20439;-67
2022/05/23 08:53:26;;;;;;;9.70;3.40;;;;;;;;;;5054793;28;20049;-67
2022/05/23 08:56:03;;;;;;;7.90;3.47;;;;;;;;;;5054899;28;20028;-66
2022/05/23 08:58:39;;;;;;;8.32;2.85;;;;;;;;;;5054774;28;20043;-66
2022/05/23 09:01:13;;;;;;;8.82;3.40;;;;;;;;;;5054785;28;20053;-66
2022/05/23 09:03:41;;;;;;;10.85;3.40;;;;;;;;;;5054985;28;20087;-66
2022/05/23 09:06:19;;;;;;;7.07;3.33;;;;;;;;;;5054653;28;20054;-66
2022/05/23 09:08:48;;;;;;;9.98;3.65;;;;;;;;;;5054798;28;20083;-66
2022/05/23 09:11:33;;;;;;;11.43;3.75;;;;;;;;;;5054724;28;20077;-66
2022/05/23 09:13:59;;;;;;;8.60;3.13;;;;;;;;;;5054705;28;20417;-66
2022/05/23 09:16:27;;;;;;;9.30;3.70;;;;;;;;;;5054484;28;20025;-66
2022/05/23 09:18:57;;;;;;;7.85;3.17;;;;;;;;;;5054283;28;20037;-66
2022/05/23 09:22:12;;;;;;;9.18;3.10;;;;;;;;;;5054362;28;20033;-66
2022/05/23 09:24:11;;;;;;;10.80;3.70;;;;;;;;;;5054569;28;20043;-66
2022/05/23 09:26:38;;;;;;;9.43;3.33;;;;;;;;;;5053923;28;20033;-66
2022/05/23 09:29:04;;;;;;;10.32;3.40;;;;;;;;;;5054089;28;20095;-66
2022/05/23 09:31:50;;;;;;;11.45;3.88;;;;;;;;;;5054197;28;20032;-66
2022/05/23 09:34:30;;;;;;;6.10;3.05;;;;;;;;;;5054038;28;20504;-66
2022/05/23 09:36:56;;;;;;;13.20;3.45;;;;;;;;;;5054273;28;20037;-66
2022/05/23 09:39:23;;;;;;;9.45;3.35;;;;;;;;;;5053970;28;20362;-66
2022/05/23 09:47:48;;;;;;;10.30;3.60;;;;;;;;;;5054052;28;20385;-69
2022/05/23 09:50:34;;;;;;;8.52;3.55;;;;;;;;;;5054105;28;20486;-66
2022/05/23 09:53:01;;;;;;;8.43;3.20;;;;;;;;;;5053321;28;20045;-66
2022/05/23 09:55:31;;;;;;;7.80;3.38;;;;;;;;;;5053692;28;20104;-66
2022/05/23 09:57:59;;;;;;;9.10;3.70;;;;;;;;;;5053263;28;20045;-66
2022/05/23 10:00:25;;;;;;;13.27;3.30;;;;;;;;;;5053285;28;20036;-66
2022/05/23 10:03:01;;;;;;;11.40;3.33;;;;;;;;;;5053348;28;20028;-66
2022/05/23 10:05:41;;;;;;;8.05;3.13;;;;;;;;;;5053497;28;20497;-65
2022/05/23 10:08:29;;;;;;;9.20;3.30;;;;;;;;;;5053624;28;20090;-66
2022/05/23 10:10:57;;;;;;;11.18;3.42;;;;;;;;;;5053511;28;20051;-66
2022/05/23 10:13:31;;;;;;;13.32;4.15;;;;;;;;;;5053262;28;20033;-66
2022/05/23 10:15:59;;;;;;;8.70;2.92;;;;;;;;;;5053279;28;20039;-66
2022/05/23 10:18:29;;;;;;;7.88;3.53;;;;;;;;;;5053614;28;20051;-66
2022/05/23 10:20:55;;;;;;;12.55;3.00;;;;;;;;;;5053504;28;20029;-66
2022/05/23 10:23:26;;;;;;;11.45;3.45;;;;;;;;;;5053080;28;20031;-66
2022/05/23 10:26:10;;;;;;;6.82;3.20;;;;;;;;;;5053122;28;20033;-66
2022/05/23 10:28:55;;;;;;;11.90;3.80;;;;;;;;;;5053253;28;20029;-66
2022/05/23 10:31:40;;;;;;;11.90;3.38;;;;;;;;;;5052897;28;20036;-66
2022/05/23 10:34:15;;;;;;;8.80;3.80;;;;;;;;;;5052879;28;20040;-67
2022/05/23 10:36:43;;;;;;;8.30;3.15;;;;;;;;;;5052885;28;20028;-66
2022/05/23 10:42:07;;;;;;;6.28;3.55;;;;;;;;;;5052905;28;20024;-66
2022/05/23 10:44:42;;;;;;;7.18;3.60;;;;;;;;;;5052965;28;20032;-67
2022/05/23 10:47:23;;;;;;;19.05;3.40;;;;;;;;;;5052947;28;20028;-66
2022/05/23 10:49:56;;;;;;;11.50;3.38;;;;;;;;;;5052957;28;20363;-65
2022/05/23 10:52:33;;;;;;;7.10;3.05;;;;;;;;;;5052680;28;20075;-65
2022/05/23 10:55:05;;;;;;;6.85;3.53;;;;;;;;;;5052922;28;20486;-65
2022/05/23 10:57:50;;;;;;;8.30;3.08;;;;;;;;;;5052629;28;20029;-64
2022/05/23 11:00:18;;;;;;;10.43;3.20;;;;;;;;;;5053193;28;20025;-64
2022/05/23 11:02:47;;;;;;;10.52;3.95;;;;;;;;;;5052548;28;20036;-64
2022/05/23 11:05:40;;;;;;;9.10;3.05;;;;;;;;;;5052508;28;20040;-64
2022/05/23 11:08:12;;;;;;;8.02;3.03;;;;;;;;;;5050532;28;20727;-64
2022/05/23 11:10:57;;;;;;;5.68;2.78;;;;;;;;;;5052847;28;20091;-64
2022/05/23 11:13:23;;;;;;;11.23;3.58;;;;;;;;;;5052699;28;20143;-64
2022/05/23 11:15:49;;;;;;;10.15;3.78;;;;;;;;;;5052433;28;20412;-64
2022/05/23 11:18:34;;;;;;;9.82;3.20;;;;;;;;;;5052321;28;20120;-64
2022/05/23 11:21:03;;;;;;;7.00;3.10;;;;;;;;;;5052434;28;20029;-64
2022/05/23 11:23:55;;;;;;;9.25;3.40;;;;;;;;;;5052597;28;20074;-64
2022/05/23 11:26:34;;;;;;;5.90;3.15;;;;;;;;;;5050392;28;20481;-64
2022/05/23 11:34:47;;;;;;;8.25;3.45;;;;;;;;;;5052796;28;20428;-64
2022/05/23 11:39:52;;;;;;;7.43;3.67;;;;;;;;;;5052355;28;20078;-65
2022/05/23 11:42:18;;;;;;;9.20;4.00;;;;;;;;;;5052704;28;20037;-64
2022/05/23 11:44:44;;;;;;;6.90;3.50;;;;;;;;;;5052123;28;20048;-64
2022/05/23 11:47:18;;;;;;;9.35;3.42;;;;;;;;;;5052261;28;20112;-64
2022/05/23 11:49:46;;;;;;;9.77;3.08;;;;;;;;;;5051678;28;20025;-65
2022/05/23 11:52:24;;;;;;;7.20;3.60;;;;;;;;;;5056125;28;20516;-64
2022/05/23 11:54:50;;;;;;;8.00;3.65;;;;;;;;;;5055698;28;20060;-64
2022/05/23 11:57:35;;;;;;;7.57;3.53;;;;;;;;;;5055539;28;20029;-65
2022/05/23 12:00:07;;;;;;;7.30;3.55;;;;;;;;;;5055948;28;20423;-64
2022/05/23 12:02:37;;;;;;;7.55;3.35;;;;;;;;;;5056071;28;20053;-64
2022/05/23 12:05:03;;;;;;;6.28;3.35;;;;;;;;;;5055687;28;20067;-64
2022/05/23 12:07:32;;;;;;;8.13;3.35;;;;;;;;;;5055806;28;20076;-64
2022/05/23 12:10:17;;;;;;;9.10;3.67;;;;;;;;;;5055401;28;20080;-64
2022/05/23 12:12:47;;;;;;;10.55;4.20;;;;;;;;;;5055516;28;20036;-64
2022/05/23 12:15:32;;;;;;;13.00;3.60;;;;;;;;;;5055795;28;20025;-62
2022/05/23 12:18:03;;;;;;;8.13;3.92;;;;;;;;;;5055299;28;20512;-64
2022/05/23 12:20:31;;;;;;;6.18;3.63;;;;;;;;;;5055541;28;20025;-63
2022/05/23 12:23:09;;;;;;;4.97;3.10;;;;;;;;;;5055372;28;20067;-64
2022/05/23 12:25:35;;;;;;;8.15;3.60;;;;;;;;;;5055388;28;20053;-62
2022/05/23 12:28:08;;;;;;;11.52;3.92;;;;;;;;;;5055231;28;20056;-64
2022/05/23 12:30:36;;;;;;;9.23;3.75;;;;;;;;;;5054910;28;20029;-64
2022/05/23 12:33:02;;;;;;;7.78;4.00;;;;;;;;;;5054074;28;20059;-64
2022/05/23 12:35:31;;;;;;;8.95;3.97;;;;;;;;;;5053987;28;20381;-63
2022/05/23 12:37:57;;;;;;;11.48;4.60;;;;;;;;;;5055485;28;20371;-63
2022/05/23 12:40:26;;;;;;;7.97;3.67;;;;;;;;;;5055437;28;20052;-64
2022/05/23 12:43:24;;;;;;;13.85;3.50;;;;;;;;;;5054265;28;20550;-63
2022/05/23 12:46:06;;;;;;;5.70;3.60;;;;;;;;;;5032176;28;20436;-63
2022/05/23 12:48:42;;;;;;;9.02;3.63;;;;;;;;;;5055152;28;20108;-64
2022/05/23 12:51:11;;;;;;;12.82;3.85;;;;;;;;;;5054930;28;20029;-64
2022/05/23 12:53:55;;;;;;;11.77;3.78;;;;;;;;;;5054605;28;20331;-64
2022/05/23 12:56:22;;;;;;;9.90;4.03;;;;;;;;;;5054092;28;20036;-64
2022/05/23 12:59:06;;;;;;;8.73;4.10;;;;;;;;;;5052083;28;20040;-64
2022/05/23 13:01:35;;;;;;;9.80;4.45;;;;;;;;;;5051956;28;20033;-64
2022/05/23 13:04:13;;;;;;;8.07;4.28;;;;;;;;;;5053813;28;20025;-63
2022/05/23 13:07:00;;;;;;;11.13;4.45;;;;;;;;;;5054643;28;20116;-64
2022/05/23 13:09:33;;;;;;;9.13;4.00;;;;;;;;;;5054006;28;20032;-64
2022/05/23 13:12:02;;;;;;;10.43;4.68;;;;;;;;;;5054149;28;20465;-63
2022/05/23 13:14:45;;;;;;;11.38;4.50;;;;;;;;;;5054385;28;20048;-64
2022/05/23 13:17:11;;;;;;;17.63;5.03;;;;;;;;;;5054364;28;20075;-64
2022/05/23 13:22:38;;;;;;;8.82;4.35;;;;;;;;;;5052089;28;20062;-64
2022/05/23 13:25:04;;;;;;;15.75;4.40;;;;;;;;;;5051404;28;20102;-64
2022/05/23 13:27:37;;;;;;;8.00;4.65;;;;;;;;;;5051321;28;20029;-64
2022/05/23 13:30:07;;;;;;;14.95;4.43;;;;;;;;;;5052334;28;20021;-63
2022/05/23 13:32:34;;;;;;;8.98;4.45;;;;;;;;;;5054059;28;20393;-63
2022/05/23 13:35:00;;;;;;;11.82;4.20;;;;;;;;;;5053841;28;20055;-63
2022/05/23 13:37:32;;;;;;;9.43;4.75;;;;;;;;;;5054008;28;20040;-63
2022/05/23 13:40:07;;;;;;;18.20;4.50;;;;;;;;;;5050512;28;20017;-64
2022/05/23 13:42:33;;;;;;;10.40;4.00;;;;;;;;;;5050942;28;20467;-65
2022/05/23 13:45:10;;;;;;;7.88;4.50;;;;;;;;;;5051067;28;20068;-65
2022/05/23 13:47:39;;;;;;;10.32;4.10;;;;;;;;;;5052214;28;20377;-63
2022/05/23 13:50:10;;;;;;;13.05;4.45;;;;;;;;;;5053599;28;20067;-64
2022/05/23 13:52:39;;;;;;;9.88;4.10;;;;;;;;;;5053117;28;20029;-63
2022/05/23 13:55:10;;;;;;;7.57;4.68;;;;;;;;;;5053767;28;20147;-65
2022/05/23 13:57:39;;;;;;;11.63;3.93;;;;;;;;;;5053605;28;20048;-67
2022/05/23 14:00:14;;;;;;;8.90;3.80;;;;;;;;;;5053579;28;20266;-64
2022/05/23 14:03:00;;;;;;;13.88;3.90;;;;;;;;;;5050216;28;20060;-64
2022/05/23 14:05:28;;;;;;;12.00;4.22;;;;;;;;;;5050025;28;20535;-64
2022/05/23 14:07:55;;;;;;;9.20;3.90;;;;;;;;;;5050145;28;20490;-64
2022/05/23 14:10:23;;;;;;;6.82;3.85;;;;;;;;;;5053513;28;20401;-64
2022/05/23 14:12:49;;;;;;;6.90;4.55;;;;;;;;;;5049431;28;20100;-63
2022/05/23 14:15:20;;;;;;;7.18;4.00;;;;;;;;;;5050910;28;20381;-64
2022/05/23 14:17:50;;;;;;;10.50;3.85;;;;;;;;;;5052587;28;20028;-64
2022/05/23 14:20:32;;;;;;;8.02;4.00;;;;;;;;;;5050614;28;20098;-63
2022/05/23 14:22:58;;;;;;;;;;;;;;;;;;5050674;28;20052;-64
2022/05/23 14:25:24;;;;;;;7.93;4.20;;;;;;;;;;5050541;28;19959;-64
2022/05/23 14:27:52;;;;;;;8.82;3.38;;;;;;;;;;5051025;28;20104;-64
2022/05/23 14:30:24;;;;;;;7.05;3.30;;;;;;;;;;5052029;28;20029;-64
2022/05/23 14:33:01;;;;;;;10.70;3.30;;;;;;;;;;5050919;28;20474;-64
2022/05/23 14:35:31;;;;;;;17.48;4.22;;;;;;;;;;5052856;28;20033;-64
2022/05/23 14:37:57;;;;;;;8.43;3.45;;;;;;;;;;5052435;28;20045;-63
2022/05/23 14:40:40;;;;;;;8.57;3.35;;;;;;;;;;5052708;28;20473;-63
2022/05/23 14:43:11;;;;;;;11.77;3.22;;;;;;;;;;5051149;28;20381;-64
2022/05/23 14:45:53;;;;;;;7.32;3.40;;;;;;;;;;5052308;28;20035;-64
2022/05/23 14:48:32;;;;;;;8.75;2.90;;;;;;;;;;5052775;28;20028;-64
2022/05/23 14:51:11;;;;;;;8.52;3.53;;;;;;;;;;5052311;28;20021;-64
2022/05/23 14:56:25;;;;;;;15.43;3.55;;;;;;;;;;5052744;28;20446;-64
2022/05/23 15:01:39;;;;;;;7.10;3.22;;;;;;;;;;5052653;28;20072;-64
2022/05/23 15:04:06;;;;;;;11.27;3.17;;;;;;;;;;5051792;28;20033;-63
2022/05/23 15:06:32;;;;;;;13.63;3.05;;;;;;;;;;5052533;28;20033;-64
2022/05/23 15:09:01;;;;;;;14.13;3.13;;;;;;;;;;5052252;28;20032;-64
2022/05/23 15:11:29;;;;;;;8.52;3.05;;;;;;;;;;5052154;28;20029;-64
2022/05/23 15:13:57;;;;;;;8.18;2.78;;;;;;;;;;5051853;28;20021;-64
2022/05/23 15:16:27;;;;;;;10.10;2.80;;;;;;;;;;5051538;28;20081;-64
2022/05/23 15:18:53;;;;;;;7.18;2.50;;;;;;;;;;5051997;28;20060;-64
2022/05/23 15:21:19;;;;;;;8.80;3.20;;;;;;;;;;5051926;28;20401;-63
2022/05/23 15:23:46;;;;;;;12.95;2.92;;;;;;;;;;5051391;28;20112;-63
2022/05/23 15:26:17;;;;;;;10.02;2.90;;;;;;;;;;5054278;28;20432;-64
2022/05/23 15:28:49;;;;;;;10.48;2.90;;;;;;;;;;5055820;28;20078;-64
2022/05/23 15:31:16;;;;;;;8.20;3.10;;;;;;;;;;5054993;28;20025;-62
2022/05/23 15:33:42;;;;;;;6.75;3.25;;;;;;;;;;5055829;28;20024;-63
2022/05/23 15:36:08;;;;;;;6.55;2.78;;;;;;;;;;5056097;28;20027;-62
2022/05/23 15:38:34;;;;;;;11.20;3.22;;;;;;;;;;5055535;28;20080;-62
2022/05/23 15:41:02;;;;;;;12.00;3.60;;;;;;;;;;5056027;28;20040;-62
2022/05/23 15:43:29;;;;;;;9.20;3.10;;;;;;;;;;5056249;28;20430;-63
2022/05/23 15:45:55;;;;;;;8.65;3.03;;;;;;;;;;5056008;28;20029;-63
2022/05/23 15:48:22;;;;;;;11.75;3.13;;;;;;;;;;5056092;28;20387;-63
2022/05/23 15:50:48;;;;;;;8.45;3.45;;;;;;;;;;5055972;28;20481;-62
2022/05/23 15:53:15;;;;;;;9.20;3.38;;;;;;;;;;5055489;28;20049;-63
2022/05/23 15:55:44;;;;;;;9.55;3.10;;;;;;;;;;5055848;28;20032;-63
2022/05/23 15:58:10;;;;;;;6.63;3.05;;;;;;;;;;5055523;28;20036;-62